Time;durP1;ratioP1;P1;durP2;ratioP2;P2;SDS_P1;SDS_P2;PMS_P1;PMS_P2;Temp;Humidity;BMP_temperature;BMP_pressure;BME280_temperature;BME280_humidity;BME280_pressure;Samples;Min_cycle;Max_cycle;Signal;HPM_P1;HPM_P2
2023/11/15 00:00:38;;;;;;;7.80;3.50;;;;;;;9.21;83.29;98814.21;129899;1262;114811;-60
2023/11/15 00:04:00;;;;;;;9.50;3.80;;;;;;;9.23;83.24;98807.10;129582;1260;114823;-60
2023/11/15 00:07:04;;;;;;;5.80;3.40;;;;;;;9.26;83.33;98807.30;129276;1263;114952;-61
2023/11/15 00:10:07;;;;;;;10.30;3.70;;;;;;;9.28;83.49;98805.36;129488;1258;114763;-60
2023/11/15 00:13:09;;;;;;;9.30;3.90;;;;;;;9.32;83.64;98807.27;129579;1260;115164;-59
2023/11/15 00:16:11;;;;;;;7.90;3.50;;;;;;;9.35;83.72;98804.91;129642;1257;114753;-61
2023/11/15 00:19:14;;;;;;;5.70;3.30;;;;;;;9.38;83.74;98807.20;129533;1271;115752;-61
2023/11/15 00:22:16;;;;;;;6.90;3.30;;;;;;;9.42;83.81;98812.27;129628;1262;115217;-60
2023/11/15 00:25:18;;;;;;;8.50;3.20;;;;;;;9.47;83.86;98810.13;129448;1262;114791;-60
2023/11/15 00:28:20;;;;;;;7.00;3.00;;;;;;;9.52;83.97;98812.14;129504;1281;114869;-63
2023/11/15 00:31:23;;;;;;;6.10;2.80;;;;;;;9.56;84.06;98815.38;129388;1262;114946;-61
2023/11/15 00:34:26;;;;;;;8.60;3.30;;;;;;;9.61;84.41;98820.41;129532;1262;114969;-62
2023/11/15 00:37:28;;;;;;;7.20;3.30;;;;;;;9.65;84.38;98819.98;129572;1281;115208;-60
2023/11/15 00:40:30;;;;;;;8.20;3.20;;;;;;;9.68;84.57;98821.87;129473;1262;114705;-61
2023/11/15 00:43:32;;;;;;;7.00;3.20;;;;;;;9.71;84.94;98824.54;129472;1260;114713;-61
2023/11/15 00:46:35;;;;;;;8.40;3.20;;;;;;;9.72;85.13;98827.86;129476;1259;114718;-62
2023/11/15 00:49:37;;;;;;;9.10;3.20;;;;;;;9.72;85.21;98832.45;129600;1264;114636;-61
2023/11/15 00:52:39;;;;;;;7.40;3.00;;;;;;;9.72;85.43;98833.52;129628;1281;115077;-60
2023/11/15 00:55:41;;;;;;;5.00;2.50;;;;;;;9.71;85.52;98837.15;129264;1281;128712;-62
2023/11/15 00:58:44;;;;;;;5.60;2.20;;;;;;;9.70;85.75;98838.48;129627;1263;114732;-59
2023/11/15 01:01:57;;;;;;;4.00;2.00;;;;;;;9.68;85.82;98839.65;129525;1260;114734;-59
2023/11/15 01:04:59;;;;;;;6.80;2.40;;;;;;;9.67;85.83;98841.89;129566;1258;114767;-59
2023/11/15 01:08:04;;;;;;;4.00;2.10;;;;;;;9.66;86.13;98843.80;129652;1257;114702;-59
2023/11/15 01:11:05;;;;;;;5.70;1.80;;;;;;;9.65;86.31;98840.45;129519;1262;114678;-61
2023/11/15 01:14:08;;;;;;;3.90;2.00;;;;;;;9.64;86.55;98839.13;129549;1260;114836;-65
2023/11/15 01:17:10;;;;;;;4.60;2.10;;;;;;;9.62;86.66;98839.42;129664;1260;114719;-64
2023/11/15 01:20:12;;;;;;;4.70;1.60;;;;;;;9.58;86.76;98834.48;129602;1262;114885;-66
2023/11/15 01:23:15;;;;;;;2.40;1.70;;;;;;;9.56;86.96;98840.17;129722;1281;114816;-62
2023/11/15 01:26:18;;;;;;;3.10;1.80;;;;;;;9.55;87.21;98840.79;129471;1260;114741;-62
2023/11/15 01:29:21;;;;;;;3.50;1.50;;;;;;;9.53;87.34;98841.95;129457;1262;114710;-65
2023/11/15 01:32:23;;;;;;;3.70;1.40;;;;;;;9.52;87.46;98839.04;129515;1264;115192;-62
2023/11/15 01:35:26;;;;;;;4.50;2.00;;;;;;;9.49;87.50;98838.52;129537;1262;114652;-65
2023/11/15 01:38:29;;;;;;;1.70;1.30;;;;;;;9.46;87.58;98836.77;129525;1273;114656;-61
2023/11/15 01:41:31;;;;;;;3.50;1.10;;;;;;;9.44;87.65;98838.64;129242;1263;115362;-62
2023/11/15 01:44:34;;;;;;;1.60;1.30;;;;;;;9.42;87.61;98840.79;129512;1263;114872;-59
2023/11/15 01:47:36;;;;;;;1.70;1.10;;;;;;;9.40;87.96;98839.30;129662;1281;114736;-60
2023/11/15 01:50:38;;;;;;;2.30;1.00;;;;;;;9.38;87.97;98843.00;129735;1263;114820;-64
2023/11/15 01:53:40;;;;;;;1.80;1.20;;;;;;;9.36;88.11;98841.91;129380;1282;115221;-61
2023/11/15 01:56:42;;;;;;;3.20;1.20;;;;;;;9.33;88.17;98841.23;129474;1265;114785;-60
2023/11/15 01:59:44;;;;;;;3.70;1.20;;;;;;;9.30;88.31;98840.52;129606;1265;114730;-60
2023/11/15 02:02:46;;;;;;;3.10;1.20;;;;;;;9.27;88.41;98842.83;129248;1270;114797;-60
2023/11/15 02:05:51;;;;;;;2.90;1.10;;;;;;;9.24;88.51;98835.89;129471;1263;114645;-64
2023/11/15 02:08:53;;;;;;;2.40;1.00;;;;;;;9.22;88.60;98833.91;129330;1281;127873;-64
2023/11/15 02:11:55;;;;;;;1.40;1.00;;;;;;;9.20;88.65;98834.41;129492;1262;114793;-63
2023/11/15 02:14:58;;;;;;;1.50;0.80;;;;;;;9.18;88.85;98836.36;129623;1261;114722;-60
2023/11/15 02:18:04;;;;;;;2.10;0.90;;;;;;;9.16;88.95;98834.69;129601;1259;114783;-64
2023/11/15 02:21:07;;;;;;;2.60;1.40;;;;;;;9.14;88.91;98834.66;129338;1263;114892;-65
2023/11/15 02:24:10;;;;;;;1.50;1.10;;;;;;;9.11;88.92;98829.48;129549;1262;115413;-64
2023/11/15 02:27:12;;;;;;;1.80;1.00;;;;;;;9.08;88.91;98830.94;129643;1260;115316;-63
2023/11/15 02:30:14;;;;;;;1.70;0.90;;;;;;;9.06;88.97;98827.52;129840;1263;115165;-60
2023/11/15 02:33:16;;;;;;;1.20;0.80;;;;;;;9.04;89.17;98824.08;129697;1258;114846;-63
2023/11/15 02:36:18;;;;;;;2.30;1.20;;;;;;;9.02;89.19;98826.34;129458;1265;114769;-60
2023/11/15 02:39:20;;;;;;;1.30;1.00;;;;;;;9.01;89.41;98830.15;129532;1262;114769;-63
2023/11/15 02:42:22;;;;;;;3.10;1.80;;;;;;;9.00;89.55;98833.77;129629;1260;115104;-61
2023/11/15 02:45:24;;;;;;;2.20;1.10;;;;;;;8.99;89.57;98831.02;129552;1281;114830;-63
2023/11/15 02:48:26;;;;;;;2.70;1.40;;;;;;;8.98;89.75;98828.75;129746;1260;114778;-63
2023/11/15 02:51:29;;;;;;;2.00;1.50;;;;;;;8.97;89.91;98826.46;129646;1259;114801;-63
2023/11/15 02:54:30;;;;;;;3.70;1.40;;;;;;;8.97;90.09;98825.07;129308;1265;114695;-59
2023/11/15 02:57:33;;;;;;;3.50;2.30;;;;;;;8.97;90.30;98826.14;129667;1262;115221;-64
2023/11/15 03:00:35;;;;;;;2.90;2.50;;;;;;;8.96;90.30;98827.42;129593;1259;115872;-61
2023/11/15 03:03:37;;;;;;;2.90;1.90;;;;;;;8.95;90.46;98821.27;129585;1263;114723;-64
2023/11/15 03:06:39;;;;;;;5.60;1.20;;;;;;;8.94;90.51;98825.95;129500;1262;114774;-65
2023/11/15 03:09:41;;;;;;;6.80;3.00;;;;;;;8.93;90.57;98827.67;129575;1260;114710;-63
2023/11/15 03:12:43;;;;;;;4.90;2.50;;;;;;;8.92;90.67;98830.40;129406;1260;128091;-60
2023/11/15 03:15:48;;;;;;;3.10;1.50;;;;;;;8.91;90.82;98829.39;129843;1258;115171;-60
2023/11/15 03:18:50;;;;;;;2.10;1.30;;;;;;;8.91;90.88;98835.46;129293;1258;114983;-60
2023/11/15 03:21:52;;;;;;;1.70;1.40;;;;;;;8.91;91.21;98838.46;129544;1260;114818;-62
2023/11/15 03:24:54;;;;;;;1.50;1.20;;;;;;;8.91;91.07;98839.52;129803;1260;114764;-62
2023/11/15 03:27:56;;;;;;;4.70;1.80;;;;;;;8.92;91.44;98841.79;129904;1278;114679;-63
2023/11/15 03:30:59;;;;;;;2.20;1.30;;;;;;;8.92;91.50;98839.85;129744;1262;114712;-64
2023/11/15 03:34:00;;;;;;;3.10;1.60;;;;;;;8.93;91.62;98840.99;129718;1263;114721;-65
2023/11/15 03:37:04;;;;;;;3.90;2.30;;;;;;;8.93;91.70;98844.38;129256;1281;116618;-64
2023/11/15 03:40:08;;;;;;;5.90;2.00;;;;;;;8.93;91.67;98842.43;129376;1265;114994;-60
2023/11/15 03:43:10;;;;;;;5.40;1.90;;;;;;;8.93;91.75;98843.84;129598;1273;115148;-64
2023/11/15 03:46:12;;;;;;;2.80;1.80;;;;;;;8.93;91.78;98850.82;129613;1269;114740;-64
2023/11/15 03:49:15;;;;;;;2.90;1.20;;;;;;;8.92;91.92;98851.20;129571;1280;114717;-62
2023/11/15 03:52:17;;;;;;;3.40;1.80;;;;;;;8.92;91.80;98852.87;129678;1262;128841;-63
2023/11/15 03:55:20;;;;;;;4.40;1.70;;;;;;;8.91;91.98;98860.19;129791;1262;114710;-60
2023/11/15 03:58:23;;;;;;;2.50;1.60;;;;;;;8.90;92.06;98862.02;129703;1274;115072;-61
2023/11/15 04:01:25;;;;;;;2.90;1.70;;;;;;;8.90;92.06;98863.47;129547;1263;115180;-60
2023/11/15 04:04:27;;;;;;;6.30;2.60;;;;;;;8.89;92.06;98867.42;129266;1263;114743;-60
2023/11/15 04:07:29;;;;;;;3.70;1.80;;;;;;;8.90;92.30;98870.80;129486;1262;114730;-64
2023/11/15 04:10:31;;;;;;;3.00;1.70;;;;;;;8.91;92.26;98872.84;129484;1262;114696;-64
2023/11/15 04:13:36;;;;;;;4.90;2.20;;;;;;;8.91;92.41;98873.55;129230;1281;128594;-62
2023/11/15 04:16:38;;;;;;;6.80;2.50;;;;;;;8.91;92.40;98875.52;129558;1274;114889;-60
2023/11/15 04:19:40;;;;;;;5.50;2.30;;;;;;;8.91;92.61;98877.83;129615;1262;114727;-64
2023/11/15 04:22:43;;;;;;;2.40;1.80;;;;;;;8.89;92.30;98878.64;129694;1263;115131;-61
2023/11/15 04:25:45;;;;;;;2.20;1.40;;;;;;;8.88;92.58;98878.70;129460;1263;114823;-62
2023/11/15 04:28:49;;;;;;;2.40;1.30;;;;;;;8.87;92.50;98878.96;129622;1263;115164;-63
2023/11/15 04:31:51;;;;;;;3.70;1.40;;;;;;;8.87;92.45;98885.59;129739;1276;114813;-64
2023/11/15 04:34:53;;;;;;;3.10;1.40;;;;;;;8.86;92.65;98888.14;129632;1260;115232;-63
2023/11/15 04:37:55;;;;;;;2.50;1.30;;;;;;;8.85;92.71;98890.73;129304;1270;115311;-61
2023/11/15 04:40:57;;;;;;;5.00;1.40;;;;;;;8.84;92.71;98894.69;129544;1261;115185;-59
2023/11/15 04:43:59;;;;;;;1.30;0.80;;;;;;;8.84;92.77;98897.73;129674;1260;115466;-60
2023/11/15 04:47:03;;;;;;;1.50;1.20;;;;;;;8.82;92.69;98897.84;129431;1257;114776;-60
2023/11/15 04:50:05;;;;;;;1.70;1.10;;;;;;;8.81;92.92;98902.29;129394;1258;115139;-60
2023/11/15 04:53:08;;;;;;;1.80;1.30;;;;;;;8.80;92.91;98901.66;129598;1262;114806;-60
2023/11/15 04:56:10;;;;;;;2.10;1.20;;;;;;;8.78;92.88;98905.73;129612;1258;114812;-63
2023/11/15 04:59:12;;;;;;;2.20;1.20;;;;;;;8.77;93.15;98914.48;129521;1263;115367;-59
2023/11/15 05:02:14;;;;;;;1.50;1.20;;;;;;;8.76;93.08;98915.09;129636;1260;114787;-59
2023/11/15 05:05:17;;;;;;;1.80;1.20;;;;;;;8.76;93.24;98916.35;129595;1262;115360;-63
2023/11/15 05:08:19;;;;;;;1.60;1.30;;;;;;;8.76;93.45;98919.91;129544;1259;114652;-61
2023/11/15 05:11:21;;;;;;;5.20;1.50;;;;;;;8.76;93.32;98922.78;129786;1262;114738;-62
2023/11/15 05:14:24;;;;;;;2.20;1.60;;;;;;;8.76;93.54;98929.34;129329;1281;128909;-63
2023/11/15 05:17:25;;;;;;;4.00;1.50;;;;;;;8.76;93.61;98933.42;129507;1281;114776;-62
2023/11/15 05:20:28;;;;;;;3.70;1.90;;;;;;;8.77;93.71;98936.38;129586;1260;114779;-61
2023/11/15 05:23:29;;;;;;;4.30;1.60;;;;;;;8.78;93.78;98942.22;129445;1264;114813;-63
2023/11/15 05:26:32;;;;;;;3.30;1.70;;;;;;;8.79;93.81;98940.72;129553;1260;115795;-61
2023/11/15 05:29:34;;;;;;;2.70;1.70;;;;;;;8.80;94.09;98945.84;129676;1263;114716;-61
2023/11/15 05:32:36;;;;;;;5.10;2.10;;;;;;;8.80;93.96;98948.10;129724;1262;114771;-61
2023/11/15 05:35:38;;;;;;;3.10;2.80;;;;;;;8.82;94.21;98953.70;129532;1260;129072;-61
2023/11/15 05:38:40;;;;;;;2.60;2.20;;;;;;;8.84;94.16;98957.35;129516;1272;114818;-61
2023/11/15 05:41:42;;;;;;;2.40;2.10;;;;;;;8.84;94.07;98963.76;129623;1281;115253;-64
2023/11/15 05:44:44;;;;;;;2.50;2.10;;;;;;;8.85;94.25;98970.44;129489;1263;114824;-64
2023/11/15 05:47:46;;;;;;;6.40;2.70;;;;;;;8.86;94.26;98969.48;129534;1263;114827;-63
2023/11/15 05:50:48;;;;;;;3.00;2.50;;;;;;;8.87;94.39;98978.13;129559;1259;114715;-60
2023/11/15 05:53:50;;;;;;;4.60;2.30;;;;;;;8.87;94.61;98985.06;129493;1262;114766;-61
2023/11/15 05:56:52;;;;;;;3.50;2.80;;;;;;;8.87;94.52;98984.52;129519;1263;114730;-60
2023/11/15 05:59:54;;;;;;;4.00;2.80;;;;;;;8.88;94.55;98990.91;129579;1262;115048;-61
2023/11/15 06:02:56;;;;;;;4.80;2.80;;;;;;;8.89;94.73;98991.03;129482;1270;115223;-64
2023/11/15 06:05:59;;;;;;;4.90;2.90;;;;;;;8.89;94.71;98995.65;129623;1262;115168;-64
2023/11/15 06:09:01;;;;;;;4.20;3.20;;;;;;;8.90;94.82;99001.45;129604;1262;114793;-62
2023/11/15 06:12:03;;;;;;;4.90;3.10;;;;;;;8.91;94.86;99004.05;129632;1257;114795;-61
2023/11/15 06:15:10;;;;;;;4.50;3.50;;;;;;;8.91;94.74;99009.02;129600;1281;115176;-61
2023/11/15 06:18:12;;;;;;;5.60;3.80;;;;;;;8.92;95.05;99013.77;129527;1263;128082;-64
2023/11/15 06:21:14;;;;;;;4.70;2.80;;;;;;;8.93;95.13;99016.25;129440;1263;115444;-61
2023/11/15 06:24:15;;;;;;;5.30;3.60;;;;;;;8.92;94.97;99025.02;129656;1272;114669;-62
2023/11/15 06:27:19;;;;;;;5.50;3.50;;;;;;;8.92;95.13;99029.46;129401;1260;114809;-60
2023/11/15 06:30:21;;;;;;;6.40;3.20;;;;;;;8.93;95.21;99033.35;129594;1264;114780;-61
2023/11/15 06:33:25;;;;;;;6.40;3.90;;;;;;;8.93;95.32;99039.18;129594;1278;115171;-63
2023/11/15 06:36:28;;;;;;;5.20;3.20;;;;;;;8.94;95.43;99042.13;129390;1267;128449;-61
2023/11/15 06:39:30;;;;;;;6.10;3.20;;;;;;;8.95;95.36;99050.42;129439;1281;114803;-62
2023/11/15 06:42:32;;;;;;;5.70;3.70;;;;;;;8.96;95.44;99054.52;129742;1273;114718;-61
2023/11/15 06:45:34;;;;;;;7.40;3.10;;;;;;;8.97;95.61;99059.96;129718;1276;114718;-61
2023/11/15 06:48:36;;;;;;;2.90;2.50;;;;;;;8.98;95.64;99062.73;129548;1269;115218;-61
2023/11/15 06:51:39;;;;;;;5.10;3.00;;;;;;;9.00;95.68;99067.26;129661;1266;114733;-61
2023/11/15 06:54:41;;;;;;;4.60;2.60;;;;;;;9.03;95.83;99080.09;129599;1262;114710;-61
2023/11/15 06:57:44;;;;;;;3.00;2.70;;;;;;;9.04;95.85;99085.16;129843;1263;115311;-62
2023/11/15 07:00:47;;;;;;;4.70;3.10;;;;;;;9.07;95.92;99092.13;129597;1260;115237;-61
2023/11/15 07:03:50;;;;;;;3.00;2.50;;;;;;;9.09;95.98;99097.88;129602;1262;114714;-63
2023/11/15 07:06:53;;;;;;;4.10;2.80;;;;;;;9.10;96.06;99104.90;129516;1281;114708;-61
2023/11/15 07:09:56;;;;;;;3.90;2.70;;;;;;;9.11;95.90;99110.35;129736;1271;114790;-60
2023/11/15 07:13:00;;;;;;;5.30;3.20;;;;;;;9.12;95.97;99111.90;129644;1263;114780;-63
2023/11/15 07:16:04;;;;;;;4.40;2.90;;;;;;;9.13;96.08;99112.73;129636;1263;114795;-61
2023/11/15 07:19:06;;;;;;;6.00;2.40;;;;;;;9.15;96.10;99120.81;129634;1273;115317;-61
2023/11/15 07:22:09;;;;;;;3.00;2.40;;;;;;;9.16;96.20;99132.70;129727;1262;114860;-61
2023/11/15 07:25:14;;;;;;;4.10;2.90;;;;;;;9.17;96.20;99134.95;129677;1262;115077;-64
2023/11/15 07:28:19;;;;;;;5.30;3.00;;;;;;;9.19;96.13;99139.98;129320;1281;126883;-63
2023/11/15 07:31:21;;;;;;;6.40;3.30;;;;;;;9.21;96.16;99142.17;129456;1276;115524;-61
2023/11/15 07:34:24;;;;;;;4.80;3.40;;;;;;;9.22;96.32;99144.23;129629;1271;114798;-66
2023/11/15 07:37:26;;;;;;;4.90;3.40;;;;;;;9.25;96.23;99148.15;129548;1269;114741;-61
2023/11/15 07:40:28;;;;;;;5.50;3.50;;;;;;;9.28;96.42;99154.75;129231;1281;114930;-60
2023/11/15 07:43:30;;;;;;;4.90;3.50;;;;;;;9.31;96.38;99159.89;129522;1257;114815;-60
2023/11/15 07:46:32;;;;;;;6.70;3.80;;;;;;;9.36;96.47;99167.05;129712;1263;114715;-63
2023/11/15 07:49:36;;;;;;;6.10;3.60;;;;;;;9.40;96.38;99172.91;129621;1262;114709;-62
2023/11/15 07:52:38;;;;;;;5.60;3.40;;;;;;;9.44;96.52;99176.56;129359;1280;115209;-62
2023/11/15 07:55:40;;;;;;;6.90;3.40;;;;;;;9.50;96.40;99171.69;129627;1262;114817;-65
2023/11/15 07:58:43;;;;;;;4.70;3.40;;;;;;;9.60;96.75;99177.31;129703;1262;115179;-63
2023/11/15 08:01:45;;;;;;;5.60;3.30;;;;;;;9.73;96.74;99187.90;129434;1263;114937;-61
2023/11/15 08:04:47;;;;;;;4.90;2.80;;;;;;;9.89;96.72;99189.91;129495;1262;114805;-63
2023/11/15 08:07:49;;;;;;;4.20;2.70;;;;;;;10.02;96.74;99192.83;129522;1272;114707;-61
2023/11/15 08:10:51;;;;;;;6.00;3.20;;;;;;;10.10;96.48;99197.70;129379;1277;128602;-62
2023/11/15 08:13:53;;;;;;;3.70;2.50;;;;;;;10.17;96.41;99205.09;129569;1270;114739;-64
2023/11/15 08:16:55;;;;;;;5.00;3.20;;;;;;;10.22;96.39;99210.11;129607;1258;115215;-64
2023/11/15 08:19:58;;;;;;;3.80;2.40;;;;;;;10.24;96.12;99217.08;129464;1266;114831;-61
2023/11/15 08:23:00;;;;;;;4.20;2.60;;;;;;;10.25;96.11;99223.09;129463;1264;114707;-61
2023/11/15 08:26:03;;;;;;;3.30;2.10;;;;;;;10.25;95.90;99229.69;129554;1274;114751;-60
2023/11/15 08:29:05;;;;;;;5.70;2.50;;;;;;;10.24;95.69;99229.09;129648;1279;115184;-62
2023/11/15 08:32:12;;;;;;;5.20;2.70;;;;;;;10.19;95.53;99234.52;129549;1271;114789;-61
2023/11/15 08:35:17;;;;;;;5.60;3.30;;;;;;;10.20;95.55;99238.75;129673;1262;115333;-63
2023/11/15 08:38:25;;;;;;;4.30;2.60;;;;;;;10.20;95.78;99249.83;129326;1263;114890;-63
2023/11/15 08:41:28;;;;;;;3.20;2.20;;;;;;;10.16;95.14;99247.05;129465;1266;114938;-64
2023/11/15 08:44:31;;;;;;;4.70;2.70;;;;;;;10.15;95.84;99246.02;129771;1263;114765;-65
2023/11/15 08:47:34;;;;;;;6.70;2.90;;;;;;;10.16;95.29;99246.91;129528;1263;114687;-62
2023/11/15 08:50:36;;;;;;;5.80;2.20;;;;;;;10.17;95.05;99254.83;129460;1274;114891;-65
2023/11/15 08:53:39;;;;;;;4.60;2.30;;;;;;;10.18;95.24;99265.45;129749;1263;114721;-63
2023/11/15 08:56:41;;;;;;;5.30;2.10;;;;;;;10.22;95.21;99266.52;127182;1263;3506716;-65
2023/11/15 08:59:45;;;;;;;4.50;2.00;;;;;;;10.23;95.27;99270.51;129568;1281;114718;-64
2023/11/15 09:02:47;;;;;;;2.70;2.10;;;;;;;10.26;94.86;99274.61;129726;1279;115087;-61
2023/11/15 09:05:51;;;;;;;4.50;1.80;;;;;;;10.28;95.17;99278.02;129556;1264;114757;-64
2023/11/15 09:08:53;;;;;;;6.60;1.80;;;;;;;10.32;94.95;99283.35;129585;1262;114895;-66
2023/11/15 09:11:56;;;;;;;3.30;1.70;;;;;;;10.36;94.82;99284.48;129595;1280;114805;-66
2023/11/15 09:14:59;;;;;;;4.10;1.90;;;;;;;10.41;94.60;99292.21;129303;1263;114854;-64
2023/11/15 09:18:04;;;;;;;8.50;1.50;;;;;;;10.46;94.36;99292.44;129525;1263;115097;-66
2023/11/15 09:21:07;;;;;;;2.90;2.00;;;;;;;10.48;94.24;99300.52;129612;1263;114827;-66
2023/11/15 09:24:09;;;;;;;4.10;1.80;;;;;;;10.51;94.37;99297.69;129552;1271;114728;-65
2023/11/15 09:27:13;;;;;;;4.70;1.40;;;;;;;10.51;94.29;99301.25;129603;1274;115237;-66
2023/11/15 09:30:15;;;;;;;6.60;1.40;;;;;;;10.49;94.09;99302.80;129558;1258;114758;-65
2023/11/15 09:33:18;;;;;;;3.20;1.60;;;;;;;10.46;93.72;99296.18;129586;1263;114963;-64
2023/11/15 09:36:20;;;;;;;5.50;1.80;;;;;;;10.45;93.85;99295.91;129578;1258;114803;-66
2023/11/15 09:39:23;;;;;;;3.70;1.20;;;;;;;10.42;93.26;99296.97;129619;1271;115169;-66
2023/11/15 09:42:28;;;;;;;2.80;1.50;;;;;;;10.44;93.61;99298.15;129613;1267;114689;-65
2023/11/15 09:45:35;;;;;;;3.70;2.00;;;;;;;10.46;93.48;99299.02;129600;1263;115253;-67
2023/11/15 09:48:43;;;;;;;3.00;1.50;;;;;;;10.50;93.91;99308.77;129614;1276;114962;-70
2023/11/15 09:51:45;;;;;;;2.10;1.20;;;;;;;10.54;93.53;99315.70;129588;1266;114836;-69
2023/11/15 09:54:48;;;;;;;1.90;1.10;;;;;;;10.57;93.95;99318.36;129886;1268;115199;-69
2023/11/15 09:57:52;;;;;;;2.20;1.10;;;;;;;10.66;93.87;99316.69;129789;1273;114904;-68
2023/11/15 10:00:54;;;;;;;2.90;1.10;;;;;;;10.76;93.84;99322.80;129852;1264;114693;-68
2023/11/15 10:03:58;;;;;;;1.40;1.20;;;;;;;10.86;93.64;99328.81;129901;1271;114840;-73
2023/11/15 10:07:01;;;;;;;1.80;0.80;;;;;;;10.96;93.31;99330.23;130038;1264;115903;-69
2023/11/15 10:10:18;;;;;;;1.20;1.10;;;;;;;11.06;93.44;99325.84;129847;1262;115354;-80
2023/11/15 10:13:21;;;;;;;2.10;0.70;;;;;;;11.10;92.66;99323.55;129765;1261;114991;-72
2023/11/15 10:16:24;;;;;;;1.00;0.90;;;;;;;11.09;92.42;99323.81;129832;1272;115355;-70
2023/11/15 10:19:27;;;;;;;2.60;1.10;;;;;;;11.09;92.09;99326.31;129716;1277;114814;-67
2023/11/15 10:22:31;;;;;;;4.20;1.10;;;;;;;11.10;91.80;99330.70;129957;1262;114689;-70
2023/11/15 10:25:47;;;;;;;1.80;1.20;;;;;;;11.09;91.72;99334.21;130079;1264;115154;-67
2023/11/15 10:28:49;;;;;;;2.60;1.00;;;;;;;11.07;91.16;99344.71;129898;1264;114821;-67
2023/11/15 10:31:55;;;;;;;1.10;0.80;;;;;;;11.04;91.50;99352.38;129782;1263;114769;-70
2023/11/15 10:34:58;;;;;;;2.50;1.10;;;;;;;11.02;90.87;99358.45;129660;1270;116494;-72
2023/11/15 10:38:00;;;;;;;2.50;1.50;;;;;;;10.98;90.31;99356.92;129971;1278;114827;-72
2023/11/15 10:41:03;;;;;;;3.20;1.50;;;;;;;10.91;90.22;99364.50;129977;1264;115103;-73
2023/11/15 10:44:07;;;;;;;2.50;1.50;;;;;;;10.88;90.31;99368.45;129847;1267;115376;-69
2023/11/15 10:47:09;;;;;;;1.60;1.20;;;;;;;10.87;90.28;99374.05;130105;1263;114706;-71
2023/11/15 10:50:15;;;;;;;4.10;1.90;;;;;;;10.89;90.21;99374.33;129938;1264;114706;-67
2023/11/15 10:53:19;;;;;;;3.40;1.00;;;;;;;10.95;90.25;99375.67;129564;1273;115303;-71
2023/11/15 10:56:22;;;;;;;1.60;1.10;;;;;;;11.09;90.25;99382.27;129879;1270;114729;-72
2023/11/15 10:59:26;;;;;;;1.80;1.10;;;;;;;11.28;90.83;99382.06;129831;1264;114721;-72
2023/11/15 11:02:31;;;;;;;8.30;0.80;;;;;;;11.45;90.04;99390.59;129834;1258;114837;-72
2023/11/15 11:05:56;;;;;;;2.10;1.20;;;;;;;11.52;89.87;99389.95;129780;1263;129054;-72
2023/11/15 11:09:21;;;;;;;4.20;1.20;;;;;;;11.51;89.29;99391.82;129629;1267;115283;-69
2023/11/15 11:12:24;;;;;;;1.40;1.00;;;;;;;11.46;88.93;99395.89;129917;1268;115492;-66
2023/11/15 11:15:31;;;;;;;1.50;1.00;;;;;;;11.36;87.76;99408.88;129850;1261;114766;-66
2023/11/15 11:18:34;;;;;;;2.20;0.70;;;;;;;11.25;87.40;99414.08;129720;1266;114878;-65
2023/11/15 11:22:08;;;;;;;1.80;1.00;;;;;;;11.18;86.77;99418.51;129930;1281;114715;-66
2023/11/15 11:25:19;;;;;;;3.80;2.40;;;;;;;11.13;87.15;99417.92;129588;1258;116478;-68
2023/11/15 11:28:22;;;;;;;1.90;1.60;;;;;;;11.10;86.90;99420.22;129845;1259;114774;-69
2023/11/15 11:31:25;;;;;;;1.80;1.40;;;;;;;11.08;86.95;99430.58;129845;1257;114794;-67
2023/11/15 11:34:27;;;;;;;2.90;1.50;;;;;;;11.04;86.93;99438.02;130000;1264;114722;-67
2023/11/15 11:37:46;;;;;;;4.10;1.70;;;;;;;10.96;86.61;99441.71;130071;1279;114798;-68
2023/11/15 11:40:49;;;;;;;6.10;3.10;;;;;;;10.90;86.26;99448.19;129560;1281;116664;-67
2023/11/15 11:43:56;;;;;;;2.50;1.90;;;;;;;10.86;86.14;99450.75;130011;1257;114744;-68
2023/11/15 11:47:03;;;;;;;2.60;1.90;;;;;;;10.91;86.27;99450.10;129834;1263;114856;-65
2023/11/15 11:50:06;;;;;;;3.30;1.40;;;;;;;11.05;85.66;99456.13;129560;1268;114737;-70
2023/11/15 11:53:11;;;;;;;2.30;1.60;;;;;;;11.19;85.51;99457.77;129353;1274;114797;-69
2023/11/15 11:56:16;;;;;;;2.20;1.70;;;;;;;11.34;85.78;99465.14;129858;1274;114828;-67
2023/11/15 11:59:18;;;;;;;3.60;1.80;;;;;;;11.46;85.36;99472.61;129907;1264;114642;-68
2023/11/15 12:02:31;;;;;;;3.80;1.60;;;;;;;11.54;84.90;99476.87;129913;1271;114700;-65
2023/11/15 12:05:33;;;;;;;4.00;1.70;;;;;;;11.57;84.41;99475.46;129656;1276;115136;-77
2023/11/15 12:08:40;;;;;;;3.90;2.10;;;;;;;11.58;84.25;99476.50;129842;1260;114802;-69
2023/11/15 12:11:44;;;;;;;2.50;1.40;;;;;;;11.56;83.63;99482.34;129672;1264;116364;-68
2023/11/15 12:14:49;;;;;;;2.50;2.30;;;;;;;11.55;83.90;99494.89;129465;1267;114757;-76
2023/11/15 12:17:52;;;;;;;;;;;;;;;11.56;84.24;99495.91;129513;1259;114726;-67
2023/11/15 12:20:55;;;;;;;3.60;1.40;;;;;;;11.52;83.95;99502.62;129505;1264;114696;-76
2023/11/15 12:23:58;;;;;;;1.20;0.90;;;;;;;11.44;83.49;99513.48;130156;1264;115878;-72
2023/11/15 12:27:02;;;;;;;0.80;0.70;;;;;;;11.32;82.39;99519.63;129894;1275;114850;-63
2023/11/15 12:30:08;;;;;;;4.60;1.50;;;;;;;11.20;82.40;99526.34;129125;1264;115288;-61
2023/11/15 12:33:11;;;;;;;1.60;1.10;;;;;;;11.11;82.32;99534.02;129203;1266;114920;-64
2023/11/15 12:36:15;;;;;;;1.70;1.10;;;;;;;11.06;82.06;99538.67;129282;1268;114870;-62
2023/11/15 12:39:17;;;;;;;1.40;1.30;;;;;;;10.99;82.34;99536.92;129626;1260;128633;-63
2023/11/15 12:42:27;;;;;;;5.00;1.50;;;;;;;10.94;82.90;99541.88;129553;1264;114780;-67
2023/11/15 12:45:31;;;;;;;2.70;1.00;;;;;;;10.93;82.91;99547.28;129644;1266;115087;-65
2023/11/15 12:48:40;;;;;;;4.00;1.10;;;;;;;10.90;82.60;99550.03;129589;1281;114872;-61
2023/11/15 12:51:49;;;;;;;1.60;1.30;;;;;;;10.84;82.26;99552.35;129569;1275;114660;-62
2023/11/15 12:54:58;;;;;;;2.00;1.30;;;;;;;10.80;82.51;99561.36;129488;1281;129201;-61
2023/11/15 12:58:00;;;;;;;3.70;2.30;;;;;;;10.78;83.18;99564.69;129224;1270;116388;-67
2023/11/15 13:01:08;;;;;;;3.30;2.20;;;;;;;10.77;82.58;99572.11;129653;1262;114773;-67
2023/11/15 13:04:14;;;;;;;4.80;2.30;;;;;;;10.73;82.60;99577.13;129355;1267;114857;-67
2023/11/15 13:07:17;;;;;;;5.60;3.10;;;;;;;10.72;82.88;99575.58;129613;1262;114722;-64
2023/11/15 13:10:19;;;;;;;6.50;4.20;;;;;;;10.70;82.72;99585.38;129608;1264;114714;-63
2023/11/15 13:13:21;;;;;;;4.90;2.60;;;;;;;10.64;82.19;99594.30;129612;1263;114934;-65
2023/11/15 13:16:26;;;;;;;3.40;1.90;;;;;;;10.54;81.68;99599.95;129689;1262;114741;-62
2023/11/15 13:19:29;;;;;;;3.50;2.30;;;;;;;10.45;81.97;99601.15;129663;1262;114726;-66
2023/11/15 13:22:31;;;;;;;3.00;1.70;;;;;;;10.39;82.00;99604.89;129618;1274;114739;-61
2023/11/15 13:25:35;;;;;;;4.00;2.20;;;;;;;10.34;82.01;99604.67;129630;1277;114725;-66
2023/11/15 13:28:39;;;;;;;2.60;1.80;;;;;;;10.28;81.96;99617.49;129542;1272;114726;-63
2023/11/15 13:31:43;;;;;;;3.10;1.70;;;;;;;10.24;81.95;99625.60;129671;1262;114658;-62
2023/11/15 13:34:46;;;;;;;6.40;3.50;;;;;;;10.20;81.95;99629.02;129356;1267;114813;-62
2023/11/15 13:37:49;;;;;;;5.50;2.90;;;;;;;10.18;82.18;99636.95;129585;1260;114878;-65
2023/11/15 13:40:51;;;;;;;5.50;3.40;;;;;;;10.18;82.09;99640.02;129436;1274;114629;-65
2023/11/15 13:43:54;;;;;;;2.40;1.60;;;;;;;10.17;82.21;99644.72;129586;1281;114822;-64
2023/11/15 13:46:57;;;;;;;5.20;2.00;;;;;;;10.16;82.10;99647.30;129589;1263;114800;-65
2023/11/15 13:49:59;;;;;;;4.10;2.60;;;;;;;10.14;82.22;99656.50;129580;1263;114912;-66
2023/11/15 13:53:03;;;;;;;3.00;2.40;;;;;;;10.09;81.75;99658.40;129527;1262;114945;-65
2023/11/15 13:56:07;;;;;;;3.10;2.40;;;;;;;10.05;81.88;99666.65;129565;1258;114715;-63
2023/11/15 13:59:09;;;;;;;2.60;1.70;;;;;;;10.00;81.65;99671.05;129581;1263;114743;-63
2023/11/15 14:02:13;;;;;;;4.20;2.00;;;;;;;9.97;81.98;99676.74;129641;1264;127800;-62
2023/11/15 14:05:17;;;;;;;3.20;1.80;;;;;;;9.92;81.49;99677.19;129552;1262;114815;-65
2023/11/15 14:08:19;;;;;;;3.20;1.90;;;;;;;9.86;81.48;99686.96;129408;1273;115245;-66